sensor_id;sensor_type;location;lat;lon;timestamp;P1;durP1;ratioP1;P2;durP2;ratioP2
6519;SDS011;3293;51.690;5.982;2024-02-16T00:02:08;8.33;;;4.17;;
6519;SDS011;3293;51.690;5.982;2024-02-16T00:07:07;3.93;;;2.90;;
6519;SDS011;3293;51.690;5.982;2024-02-16T00:12:07;3.57;;;2.70;;
6519;SDS011;3293;51.690;5.982;2024-02-16T00:17:07;5.47;;;3.20;;
6519;SDS011;3293;51.690;5.982;2024-02-16T00:22:09;6.00;;;3.13;;
6519;SDS011;3293;51.690;5.982;2024-02-16T00:27:09;4.37;;;3.10;;
6519;SDS011;3293;51.690;5.982;2024-02-16T00:32:09;4.43;;;3.10;;
6519;SDS011;3293;51.690;5.982;2024-02-16T00:37:09;5.10;;;3.40;;
6519;SDS011;3293;51.690;5.982;2024-02-16T00:42:11;6.80;;;3.10;;
6519;SDS011;3293;51.690;5.982;2024-02-16T00:47:11;4.23;;;2.90;;
6519;SDS011;3293;51.690;5.982;2024-02-16T00:52:11;4.50;;;3.17;;
6519;SDS011;3293;51.690;5.982;2024-02-16T00:57:11;4.13;;;2.80;;
6519;SDS011;3293;51.690;5.982;2024-02-16T01:02:10;3.97;;;2.53;;
6519;SDS011;3293;51.690;5.982;2024-02-16T01:07:11;3.67;;;3.03;;
6519;SDS011;3293;51.690;5.982;2024-02-16T01:12:11;3.83;;;2.80;;
6519;SDS011;3293;51.690;5.982;2024-02-16T01:17:11;5.40;;;3.00;;
6519;SDS011;3293;51.690;5.982;2024-02-16T01:22:11;5.60;;;2.90;;
6519;SDS011;3293;51.690;5.982;2024-02-16T01:27:11;5.80;;;3.07;;
6519;SDS011;3293;51.690;5.982;2024-02-16T01:32:11;5.53;;;3.40;;
6519;SDS011;3293;51.690;5.982;2024-02-16T01:37:10;6.33;;;3.30;;
6519;SDS011;3293;51.690;5.982;2024-02-16T01:42:11;5.80;;;3.03;;
6519;SDS011;3293;51.690;5.982;2024-02-16T01:47:11;6.17;;;3.20;;
6519;SDS011;3293;51.690;5.982;2024-02-16T01:52:11;4.00;;;2.90;;
6519;SDS011;3293;51.690;5.982;2024-02-16T01:57:11;6.07;;;3.20;;
6519;SDS011;3293;51.690;5.982;2024-02-16T02:02:11;5.90;;;3.10;;
6519;SDS011;3293;51.690;5.982;2024-02-16T02:07:15;7.67;;;3.10;;
6519;SDS011;3293;51.690;5.982;2024-02-16T02:12:15;3.40;;;2.90;;
6519;SDS011;3293;51.690;5.982;2024-02-16T02:17:16;5.13;;;3.10;;
6519;SDS011;3293;51.690;5.982;2024-02-16T02:22:18;4.00;;;2.80;;
6519;SDS011;3293;51.690;5.982;2024-02-16T02:27:19;7.43;;;2.93;;
6519;SDS011;3293;51.690;5.982;2024-02-16T02:32:18;5.87;;;3.00;;
6519;SDS011;3293;51.690;5.982;2024-02-16T02:37:18;3.40;;;2.97;;
6519;SDS011;3293;51.690;5.982;2024-02-16T02:42:18;4.80;;;2.70;;
6519;SDS011;3293;51.690;5.982;2024-02-16T02:47:19;5.00;;;2.70;;
6519;SDS011;3293;51.690;5.982;2024-02-16T02:52:20;6.87;;;3.20;;
6519;SDS011;3293;51.690;5.982;2024-02-16T02:57:20;7.13;;;3.13;;
6519;SDS011;3293;51.690;5.982;2024-02-16T03:02:20;4.30;;;2.90;;
6519;SDS011;3293;51.690;5.982;2024-02-16T03:07:20;5.03;;;2.90;;
6519;SDS011;3293;51.690;5.982;2024-02-16T03:12:20;3.60;;;3.20;;
6519;SDS011;3293;51.690;5.982;2024-02-16T03:17:21;4.47;;;3.00;;
6519;SDS011;3293;51.690;5.982;2024-02-16T03:22:21;5.77;;;3.03;;
6519;SDS011;3293;51.690;5.982;2024-02-16T03:27:21;5.03;;;3.20;;
6519;SDS011;3293;51.690;5.982;2024-02-16T03:32:21;6.27;;;3.00;;
6519;SDS011;3293;51.690;5.982;2024-02-16T03:37:20;4.37;;;2.80;;
6519;SDS011;3293;51.690;5.982;2024-02-16T03:42:21;3.43;;;2.93;;
6519;SDS011;3293;51.690;5.982;2024-02-16T03:47:20;7.00;;;3.03;;
6519;SDS011;3293;51.690;5.982;2024-02-16T03:52:20;4.97;;;3.00;;
6519;SDS011;3293;51.690;5.982;2024-02-16T03:57:20;5.90;;;3.37;;
6519;SDS011;3293;51.690;5.982;2024-02-16T04:02:20;6.30;;;3.00;;
6519;SDS011;3293;51.690;5.982;2024-02-16T04:07:20;4.90;;;3.40;;
6519;SDS011;3293;51.690;5.982;2024-02-16T04:12:20;4.33;;;3.40;;
6519;SDS011;3293;51.690;5.982;2024-02-16T04:17:19;4.13;;;2.93;;
6519;SDS011;3293;51.690;5.982;2024-02-16T04:22:19;5.97;;;3.00;;
6519;SDS011;3293;51.690;5.982;2024-02-16T04:27:19;4.50;;;3.00;;
6519;SDS011;3293;51.690;5.982;2024-02-16T04:32:19;5.00;;;3.07;;
6519;SDS011;3293;51.690;5.982;2024-02-16T04:37:19;4.70;;;3.20;;
6519;SDS011;3293;51.690;5.982;2024-02-16T04:42:19;6.57;;;4.07;;
6519;SDS011;3293;51.690;5.982;2024-02-16T04:47:19;5.77;;;3.77;;
6519;SDS011;3293;51.690;5.982;2024-02-16T04:52:19;4.00;;;3.57;;
6519;SDS011;3293;51.690;5.982;2024-02-16T04:57:19;6.27;;;3.10;;
6519;SDS011;3293;51.690;5.982;2024-02-16T05:02:20;4.93;;;3.57;;
6519;SDS011;3293;51.690;5.982;2024-02-16T05:07:19;4.77;;;3.30;;
6519;SDS011;3293;51.690;5.982;2024-02-16T05:12:19;5.77;;;3.47;;
6519;SDS011;3293;51.690;5.982;2024-02-16T05:17:20;7.50;;;3.50;;
6519;SDS011;3293;51.690;5.982;2024-02-16T05:22:21;5.17;;;3.00;;
6519;SDS011;3293;51.690;5.982;2024-02-16T05:27:21;4.57;;;3.33;;
6519;SDS011;3293;51.690;5.982;2024-02-16T05:32:21;4.57;;;3.67;;
6519;SDS011;3293;51.690;5.982;2024-02-16T05:37:21;3.93;;;3.30;;
6519;SDS011;3293;51.690;5.982;2024-02-16T05:42:21;5.07;;;3.60;;
6519;SDS011;3293;51.690;5.982;2024-02-16T05:47:22;7.90;;;3.40;;
6519;SDS011;3293;51.690;5.982;2024-02-16T05:52:22;4.77;;;3.57;;
6519;SDS011;3293;51.690;5.982;2024-02-16T05:57:22;6.17;;;3.37;;
6519;SDS011;3293;51.690;5.982;2024-02-16T06:02:23;3.93;;;3.13;;
6519;SDS011;3293;51.690;5.982;2024-02-16T06:07:26;6.70;;;3.73;;
6519;SDS011;3293;51.690;5.982;2024-02-16T06:12:26;5.30;;;3.00;;
6519;SDS011;3293;51.690;5.982;2024-02-16T06:17:26;4.83;;;3.30;;
6519;SDS011;3293;51.690;5.982;2024-02-16T06:22:26;5.00;;;3.50;;
6519;SDS011;3293;51.690;5.982;2024-02-16T06:27:27;5.63;;;3.07;;
6519;SDS011;3293;51.690;5.982;2024-02-16T06:32:27;4.30;;;3.30;;
6519;SDS011;3293;51.690;5.982;2024-02-16T06:37:28;6.80;;;3.30;;
6519;SDS011;3293;51.690;5.982;2024-02-16T06:42:27;5.90;;;3.53;;
6519;SDS011;3293;51.690;5.982;2024-02-16T06:47:28;4.90;;;3.40;;
6519;SDS011;3293;51.690;5.982;2024-02-16T06:52:28;6.13;;;3.67;;
6519;SDS011;3293;51.690;5.982;2024-02-16T06:57:28;5.27;;;3.70;;
6519;SDS011;3293;51.690;5.982;2024-02-16T07:02:30;6.40;;;4.23;;
6519;SDS011;3293;51.690;5.982;2024-02-16T07:07:30;6.53;;;4.30;;
6519;SDS011;3293;51.690;5.982;2024-02-16T07:12:35;4.50;;;4.10;;
6519;SDS011;3293;51.690;5.982;2024-02-16T07:17:35;7.43;;;4.17;;
6519;SDS011;3293;51.690;5.982;2024-02-16T07:22:36;5.40;;;4.00;;
6519;SDS011;3293;51.690;5.982;2024-02-16T07:27:36;4.90;;;4.17;;
6519;SDS011;3293;51.690;5.982;2024-02-16T07:32:35;7.87;;;4.20;;
6519;SDS011;3293;51.690;5.982;2024-02-16T07:37:35;6.30;;;4.43;;
6519;SDS011;3293;51.690;5.982;2024-02-16T07:42:39;7.43;;;4.30;;
6519;SDS011;3293;51.690;5.982;2024-02-16T07:47:41;8.10;;;4.93;;
6519;SDS011;3293;51.690;5.982;2024-02-16T07:52:41;8.80;;;4.20;;
6519;SDS011;3293;51.690;5.982;2024-02-16T07:57:41;9.37;;;4.70;;
6519;SDS011;3293;51.690;5.982;2024-02-16T08:02:41;6.60;;;3.90;;
6519;SDS011;3293;51.690;5.982;2024-02-16T08:07:45;4.23;;;3.83;;
6519;SDS011;3293;51.690;5.982;2024-02-16T08:12:46;5.53;;;3.97;;
6519;SDS011;3293;51.690;5.982;2024-02-16T08:17:46;4.80;;;3.63;;
6519;SDS011;3293;51.690;5.982;2024-02-16T08:22:46;6.57;;;3.57;;
6519;SDS011;3293;51.690;5.982;2024-02-16T08:27:46;8.67;;;4.10;;
6519;SDS011;3293;51.690;5.982;2024-02-16T08:32:46;6.80;;;3.93;;
6519;SDS011;3293;51.690;5.982;2024-02-16T08:37:47;5.70;;;3.80;;
6519;SDS011;3293;51.690;5.982;2024-02-16T08:42:47;6.10;;;4.13;;
6519;SDS011;3293;51.690;5.982;2024-02-16T08:47:47;6.53;;;3.70;;
6519;SDS011;3293;51.690;5.982;2024-02-16T08:52:47;5.37;;;4.00;;
6519;SDS011;3293;51.690;5.982;2024-02-16T08:57:47;10.80;;;4.10;;
6519;SDS011;3293;51.690;5.982;2024-02-16T09:02:47;8.50;;;4.27;;
6519;SDS011;3293;51.690;5.982;2024-02-16T09:07:47;8.73;;;4.03;;
6519;SDS011;3293;51.690;5.982;2024-02-16T09:12:47;6.47;;;3.90;;
6519;SDS011;3293;51.690;5.982;2024-02-16T09:17:47;5.93;;;3.90;;
6519;SDS011;3293;51.690;5.982;2024-02-16T09:22:47;5.83;;;4.10;;
6519;SDS011;3293;51.690;5.982;2024-02-16T09:27:47;7.30;;;4.00;;
6519;SDS011;3293;51.690;5.982;2024-02-16T09:32:47;4.90;;;3.87;;
6519;SDS011;3293;51.690;5.982;2024-02-16T09:37:47;5.43;;;4.40;;
6519;SDS011;3293;51.690;5.982;2024-02-16T09:42:48;7.43;;;5.10;;
6519;SDS011;3293;51.690;5.982;2024-02-16T09:47:48;6.87;;;4.00;;
6519;SDS011;3293;51.690;5.982;2024-02-16T09:52:50;8.50;;;4.17;;
6519;SDS011;3293;51.690;5.982;2024-02-16T09:57:59;7.43;;;4.07;;
6519;SDS011;3293;51.690;5.982;2024-02-16T10:03:00;8.37;;;4.30;;
6519;SDS011;3293;51.690;5.982;2024-02-16T10:08:00;7.57;;;4.17;;
6519;SDS011;3293;51.690;5.982;2024-02-16T10:13:11;7.10;;;4.50;;
6519;SDS011;3293;51.690;5.982;2024-02-16T10:18:11;7.00;;;4.47;;
6519;SDS011;3293;51.690;5.982;2024-02-16T10:23:12;13.37;;;5.00;;
6519;SDS011;3293;51.690;5.982;2024-02-16T10:28:12;11.40;;;4.40;;
6519;SDS011;3293;51.690;5.982;2024-02-16T10:33:13;9.67;;;4.80;;
6519;SDS011;3293;51.690;5.982;2024-02-16T10:38:13;9.50;;;5.27;;
6519;SDS011;3293;51.690;5.982;2024-02-16T10:43:15;11.90;;;5.37;;
6519;SDS011;3293;51.690;5.982;2024-02-16T10:48:17;10.13;;;5.30;;
6519;SDS011;3293;51.690;5.982;2024-02-16T10:58:20;8.53;;;5.03;;
6519;SDS011;3293;51.690;5.982;2024-02-16T11:03:21;10.53;;;5.93;;
6519;SDS011;3293;51.690;5.982;2024-02-16T11:08:24;10.33;;;5.87;;
6519;SDS011;3293;51.690;5.982;2024-02-16T11:13:28;8.77;;;6.23;;
6519;SDS011;3293;51.690;5.982;2024-02-16T11:18:32;12.17;;;5.70;;
6519;SDS011;3293;51.690;5.982;2024-02-16T11:23:36;13.00;;;6.20;;
6519;SDS011;3293;51.690;5.982;2024-02-16T11:28:37;12.23;;;6.23;;
6519;SDS011;3293;51.690;5.982;2024-02-16T11:33:42;8.73;;;5.23;;
6519;SDS011;3293;51.690;5.982;2024-02-16T11:38:43;10.73;;;6.27;;
6519;SDS011;3293;51.690;5.982;2024-02-16T11:43:43;8.73;;;6.60;;
6519;SDS011;3293;51.690;5.982;2024-02-16T11:48:43;10.03;;;6.97;;
6519;SDS011;3293;51.690;5.982;2024-02-16T11:53:43;12.10;;;6.47;;
6519;SDS011;3293;51.690;5.982;2024-02-16T11:58:44;10.90;;;6.50;;
6519;SDS011;3293;51.690;5.982;2024-02-16T12:03:44;9.83;;;6.30;;
6519;SDS011;3293;51.690;5.982;2024-02-16T12:08:45;10.40;;;6.73;;
6519;SDS011;3293;51.690;5.982;2024-02-16T12:13:45;13.70;;;7.67;;
6519;SDS011;3293;51.690;5.982;2024-02-16T12:18:45;12.13;;;7.23;;
6519;SDS011;3293;51.690;5.982;2024-02-16T12:23:45;11.53;;;7.37;;
6519;SDS011;3293;51.690;5.982;2024-02-16T12:28:45;14.77;;;9.13;;
6519;SDS011;3293;51.690;5.982;2024-02-16T12:33:46;14.97;;;9.67;;
6519;SDS011;3293;51.690;5.982;2024-02-16T12:38:47;16.67;;;9.93;;
6519;SDS011;3293;51.690;5.982;2024-02-16T12:43:47;15.33;;;11.10;;
6519;SDS011;3293;51.690;5.982;2024-02-16T12:48:46;14.93;;;11.07;;
6519;SDS011;3293;51.690;5.982;2024-02-16T12:53:46;17.23;;;11.90;;
6519;SDS011;3293;51.690;5.982;2024-02-16T12:58:46;15.90;;;10.93;;
6519;SDS011;3293;51.690;5.982;2024-02-16T13:03:47;15.63;;;12.57;;
6519;SDS011;3293;51.690;5.982;2024-02-16T13:08:47;13.93;;;11.27;;
6519;SDS011;3293;51.690;5.982;2024-02-16T13:13:47;11.50;;;10.30;;
6519;SDS011;3293;51.690;5.982;2024-02-16T13:18:47;13.10;;;9.77;;
6519;SDS011;3293;51.690;5.982;2024-02-16T13:23:47;11.40;;;10.20;;
6519;SDS011;3293;51.690;5.982;2024-02-16T13:28:47;13.83;;;10.00;;
6519;SDS011;3293;51.690;5.982;2024-02-16T13:33:47;12.63;;;10.10;;
6519;SDS011;3293;51.690;5.982;2024-02-16T13:38:47;10.73;;;9.47;;
6519;SDS011;3293;51.690;5.982;2024-02-16T13:43:47;12.43;;;9.70;;
6519;SDS011;3293;51.690;5.982;2024-02-16T13:48:47;9.93;;;8.90;;
6519;SDS011;3293;51.690;5.982;2024-02-16T13:53:47;11.50;;;9.07;;
6519;SDS011;3293;51.690;5.982;2024-02-16T13:58:47;12.37;;;8.73;;
6519;SDS011;3293;51.690;5.982;2024-02-16T14:03:47;12.33;;;11.03;;
6519;SDS011;3293;51.690;5.982;2024-02-16T14:08:48;12.73;;;11.43;;
6519;SDS011;3293;51.690;5.982;2024-02-16T14:13:51;15.57;;;12.00;;
6519;SDS011;3293;51.690;5.982;2024-02-16T14:18:50;13.27;;;11.20;;
6519;SDS011;3293;51.690;5.982;2024-02-16T14:23:51;13.60;;;10.97;;
6519;SDS011;3293;51.690;5.982;2024-02-16T14:28:51;14.10;;;10.97;;
6519;SDS011;3293;51.690;5.982;2024-02-16T14:33:54;14.43;;;10.90;;
6519;SDS011;3293;51.690;5.982;2024-02-16T14:38:55;10.80;;;8.60;;
6519;SDS011;3293;51.690;5.982;2024-02-16T14:43:55;8.13;;;6.77;;
6519;SDS011;3293;51.690;5.982;2024-02-16T14:48:56;6.80;;;6.10;;
6519;SDS011;3293;51.690;5.982;2024-02-16T14:53:56;8.57;;;6.00;;
6519;SDS011;3293;51.690;5.982;2024-02-16T14:58:55;6.97;;;6.07;;
6519;SDS011;3293;51.690;5.982;2024-02-16T15:03:55;7.30;;;6.00;;
6519;SDS011;3293;51.690;5.982;2024-02-16T15:08:55;6.90;;;6.30;;
6519;SDS011;3293;51.690;5.982;2024-02-16T15:13:55;6.13;;;5.53;;
6519;SDS011;3293;51.690;5.982;2024-02-16T15:18:55;6.37;;;5.77;;
6519;SDS011;3293;51.690;5.982;2024-02-16T15:23:55;8.23;;;6.20;;
6519;SDS011;3293;51.690;5.982;2024-02-16T15:28:55;7.00;;;6.30;;
6519;SDS011;3293;51.690;5.982;2024-02-16T15:33:55;6.13;;;5.60;;
6519;SDS011;3293;51.690;5.982;2024-02-16T15:38:54;7.43;;;6.63;;
6519;SDS011;3293;51.690;5.982;2024-02-16T15:43:54;6.57;;;5.87;;
6519;SDS011;3293;51.690;5.982;2024-02-16T15:48:54;6.93;;;5.73;;
6519;SDS011;3293;51.690;5.982;2024-02-16T15:53:54;7.67;;;6.73;;
6519;SDS011;3293;51.690;5.982;2024-02-16T15:58:54;7.93;;;5.63;;
6519;SDS011;3293;51.690;5.982;2024-02-16T16:03:58;6.37;;;5.77;;
6519;SDS011;3293;51.690;5.982;2024-02-16T16:08:58;6.77;;;6.03;;
6519;SDS011;3293;51.690;5.982;2024-02-16T16:13:58;7.23;;;6.53;;
6519;SDS011;3293;51.690;5.982;2024-02-16T16:18:58;9.60;;;6.83;;
6519;SDS011;3293;51.690;5.982;2024-02-16T16:23:58;7.37;;;6.30;;
6519;SDS011;3293;51.690;5.982;2024-02-16T16:28:58;7.60;;;6.77;;
6519;SDS011;3293;51.690;5.982;2024-02-16T16:33:58;7.33;;;6.50;;
6519;SDS011;3293;51.690;5.982;2024-02-16T16:38:58;6.80;;;6.10;;
6519;SDS011;3293;51.690;5.982;2024-02-16T16:43:57;7.33;;;6.63;;
6519;SDS011;3293;51.690;5.982;2024-02-16T16:48:58;7.13;;;6.43;;
6519;SDS011;3293;51.690;5.982;2024-02-16T16:53:57;7.27;;;6.57;;
6519;SDS011;3293;51.690;5.982;2024-02-16T16:58:58;8.20;;;7.40;;
6519;SDS011;3293;51.690;5.982;2024-02-16T17:03:58;10.97;;;8.23;;
6519;SDS011;3293;51.690;5.982;2024-02-16T17:08:59;11.00;;;8.30;;
6519;SDS011;3293;51.690;5.982;2024-02-16T17:13:59;8.40;;;7.60;;
6519;SDS011;3293;51.690;5.982;2024-02-16T17:18:59;9.17;;;8.23;;
6519;SDS011;3293;51.690;5.982;2024-02-16T17:23:59;9.03;;;7.83;;
6519;SDS011;3293;51.690;5.982;2024-02-16T17:28:59;9.43;;;8.27;;
6519;SDS011;3293;51.690;5.982;2024-02-16T17:33:59;10.57;;;8.63;;
6519;SDS011;3293;51.690;5.982;2024-02-16T17:39:00;11.20;;;9.73;;
6519;SDS011;3293;51.690;5.982;2024-02-16T17:44:01;10.60;;;9.43;;
6519;SDS011;3293;51.690;5.982;2024-02-16T17:49:01;12.37;;;9.97;;
6519;SDS011;3293;51.690;5.982;2024-02-16T17:54:01;11.33;;;10.03;;
6519;SDS011;3293;51.690;5.982;2024-02-16T17:59:01;15.77;;;12.87;;
6519;SDS011;3293;51.690;5.982;2024-02-16T18:04:01;21.93;;;15.87;;
6519;SDS011;3293;51.690;5.982;2024-02-16T18:09:02;19.40;;;15.53;;
6519;SDS011;3293;51.690;5.982;2024-02-16T18:14:02;20.40;;;17.00;;
6519;SDS011;3293;51.690;5.982;2024-02-16T18:19:02;21.70;;;17.47;;
6519;SDS011;3293;51.690;5.982;2024-02-16T18:24:03;26.07;;;18.73;;
6519;SDS011;3293;51.690;5.982;2024-02-16T18:29:03;25.73;;;19.40;;
6519;SDS011;3293;51.690;5.982;2024-02-16T18:34:03;25.30;;;18.07;;
6519;SDS011;3293;51.690;5.982;2024-02-16T18:39:03;25.13;;;18.93;;
6519;SDS011;3293;51.690;5.982;2024-02-16T18:44:03;19.73;;;17.37;;
6519;SDS011;3293;51.690;5.982;2024-02-16T18:49:03;22.23;;;17.60;;
6519;SDS011;3293;51.690;5.982;2024-02-16T18:54:03;21.47;;;14.97;;
6519;SDS011;3293;51.690;5.982;2024-02-16T18:59:07;16.60;;;13.53;;
6519;SDS011;3293;51.690;5.982;2024-02-16T19:04:08;17.43;;;13.27;;
6519;SDS011;3293;51.690;5.982;2024-02-16T19:09:08;17.33;;;13.10;;
6519;SDS011;3293;51.690;5.982;2024-02-16T19:14:08;17.23;;;12.97;;
6519;SDS011;3293;51.690;5.982;2024-02-16T19:19:08;17.67;;;12.00;;
6519;SDS011;3293;51.690;5.982;2024-02-16T19:24:10;15.23;;;11.57;;
6519;SDS011;3293;51.690;5.982;2024-02-16T19:29:10;15.07;;;11.13;;
6519;SDS011;3293;51.690;5.982;2024-02-16T19:34:10;14.70;;;11.33;;
6519;SDS011;3293;51.690;5.982;2024-02-16T19:39:10;15.30;;;11.63;;
6519;SDS011;3293;51.690;5.982;2024-02-16T19:44:14;17.43;;;13.20;;
6519;SDS011;3293;51.690;5.982;2024-02-16T19:49:16;15.33;;;12.43;;
6519;SDS011;3293;51.690;5.982;2024-02-16T19:54:15;15.07;;;12.23;;
6519;SDS011;3293;51.690;5.982;2024-02-16T19:59:16;21.20;;;14.83;;
6519;SDS011;3293;51.690;5.982;2024-02-16T20:04:16;22.77;;;16.20;;
6519;SDS011;3293;51.690;5.982;2024-02-16T20:09:17;29.43;;;18.77;;
6519;SDS011;3293;51.690;5.982;2024-02-16T20:14:17;22.67;;;17.00;;
6519;SDS011;3293;51.690;5.982;2024-02-16T20:19:17;24.83;;;16.30;;
6519;SDS011;3293;51.690;5.982;2024-02-16T20:24:17;23.90;;;17.23;;
6519;SDS011;3293;51.690;5.982;2024-02-16T20:29:18;21.77;;;16.57;;
6519;SDS011;3293;51.690;5.982;2024-02-16T20:34:19;26.77;;;17.17;;
6519;SDS011;3293;51.690;5.982;2024-02-16T20:39:19;24.83;;;18.20;;
6519;SDS011;3293;51.690;5.982;2024-02-16T20:44:19;25.07;;;18.67;;
6519;SDS011;3293;51.690;5.982;2024-02-16T20:49:19;25.63;;;18.57;;
6519;SDS011;3293;51.690;5.982;2024-02-16T20:54:19;26.20;;;17.13;;
6519;SDS011;3293;51.690;5.982;2024-02-16T20:59:20;25.07;;;16.53;;
6519;SDS011;3293;51.690;5.982;2024-02-16T21:04:30;25.57;;;17.77;;
6519;SDS011;3293;51.690;5.982;2024-02-16T21:09:33;27.83;;;17.73;;
6519;SDS011;3293;51.690;5.982;2024-02-16T21:14:33;25.27;;;17.20;;
6519;SDS011;3293;51.690;5.982;2024-02-16T21:19:34;28.37;;;17.23;;
6519;SDS011;3293;51.690;5.982;2024-02-16T21:24:34;23.57;;;15.27;;
6519;SDS011;3293;51.690;5.982;2024-02-16T21:29:35;23.80;;;15.17;;
6519;SDS011;3293;51.690;5.982;2024-02-16T21:34:36;21.43;;;14.70;;
6519;SDS011;3293;51.690;5.982;2024-02-16T21:39:36;27.73;;;15.50;;
6519;SDS011;3293;51.690;5.982;2024-02-16T21:44:36;25.60;;;15.97;;
6519;SDS011;3293;51.690;5.982;2024-02-16T21:49:39;22.60;;;15.53;;
6519;SDS011;3293;51.690;5.982;2024-02-16T21:54:39;29.27;;;16.10;;
6519;SDS011;3293;51.690;5.982;2024-02-16T21:59:39;27.40;;;15.83;;
6519;SDS011;3293;51.690;5.982;2024-02-16T22:04:39;23.70;;;14.83;;
6519;SDS011;3293;51.690;5.982;2024-02-16T22:09:39;30.17;;;16.50;;
6519;SDS011;3293;51.690;5.982;2024-02-16T22:14:39;25.87;;;16.00;;
6519;SDS011;3293;51.690;5.982;2024-02-16T22:19:39;24.37;;;15.30;;
6519;SDS011;3293;51.690;5.982;2024-02-16T22:24:38;28.57;;;15.07;;
6519;SDS011;3293;51.690;5.982;2024-02-16T22:29:38;24.23;;;15.73;;
6519;SDS011;3293;51.690;5.982;2024-02-16T22:34:38;23.13;;;15.17;;
6519;SDS011;3293;51.690;5.982;2024-02-16T22:39:38;23.17;;;15.07;;
6519;SDS011;3293;51.690;5.982;2024-02-16T22:44:38;22.17;;;15.37;;
6519;SDS011;3293;51.690;5.982;2024-02-16T22:49:38;28.57;;;15.97;;
6519;SDS011;3293;51.690;5.982;2024-02-16T22:54:38;24.53;;;15.03;;
6519;SDS011;3293;51.690;5.982;2024-02-16T22:59:38;23.90;;;16.00;;
6519;SDS011;3293;51.690;5.982;2024-02-16T23:04:38;25.13;;;15.90;;
6519;SDS011;3293;51.690;5.982;2024-02-16T23:09:40;24.33;;;15.87;;
6519;SDS011;3293;51.690;5.982;2024-02-16T23:14:42;21.07;;;15.30;;
6519;SDS011;3293;51.690;5.982;2024-02-16T23:19:41;21.27;;;15.57;;
6519;SDS011;3293;51.690;5.982;2024-02-16T23:24:43;28.00;;;15.73;;
6519;SDS011;3293;51.690;5.982;2024-02-16T23:29:43;24.37;;;16.73;;
6519;SDS011;3293;51.690;5.982;2024-02-16T23:34:44;27.80;;;16.30;;
6519;SDS011;3293;51.690;5.982;2024-02-16T23:39:44;24.90;;;15.53;;
6519;SDS011;3293;51.690;5.982;2024-02-16T23:44:44;29.70;;;16.70;;
6519;SDS011;3293;51.690;5.982;2024-02-16T23:49:44;25.13;;;14.87;;
6519;SDS011;3293;51.690;5.982;2024-02-16T23:54:44;26.17;;;16.27;;
6519;SDS011;3293;51.690;5.982;2024-02-16T23:59:44;24.13;;;15.10;;
